Capitol Logistics 3254


KMTH
The Florida Keys Marathon International Airport
Marathon, Florida, US
KEYW
Key West International Airport
Key West, Florida, US

Activity Log

Date Flight Route Aircraft Duration
10/23/2019 CPX654 JANKA SF34 0h 31m
06/16/2019 CPX654 JANKA SF34 0h 25m
06/05/2019 CPX654 DVALL CURSO5 SF34 0h 38m
04/30/2019 CPX654 NQX SF34 0h 17m
04/13/2019 CPX654 JANKA SF34 0h 18m
04/02/2019 CPX654 JANKA SF34 0h 21m
03/21/2019 CPX654 JANKA SF34 0h 25m
03/06/2019 CPX654 JANKA SF34 0h 25m

Route Details

Aircraft Information
Primary: Saab 340AF
Backup: Not Available
Route Data
Distance: 40nm
Sched. Duration: 0h 45m
Avg. Duration: 0h 25m (-20m)
Times Flown: 8
Recm'd Route: JANKA
Planned Altitude: 2,500ft
Origin Wx: KMTH 231353Z AUTO 04013KT 10SM CLR 21/17 A3017 RMK AO2 SLP214 T02110167
Dest. Wx: KEYW 231353Z 04008G22KT 10SM CLR 22/17 A3017 RMK AO2 SLP217 T02170167
Notes:

Financial History
Total Freight: 43,095lbs
Average Load: 5,387lbs/flt
Fuel Used: 2,748lbs
Avg. Fuel Used: 344lbs/flt
Fuel Expense: $2,501
Avg. Fuel Expense: $313
Avg. Fuel Cost: $0.91/lbs
Total Gross Income: $48,266
Pilot Pay: $1,352
Total Expenses: $5,629
Total Revenue: $39,430
Average Revenue: $6,033.30